Alpine Moment — VREV7 — position and weather

sailwx.info

Track history (hours):
 
Tides and Currents Weather Stations Pressure Air Temp Water Temp Dewpoint Dewpoint Depression Visibility Wind Speed Wind Dir Waves Ship Positions

Alpine Moment

Last reported at 2017-Jun-27 20:32 UTC. Time now 2017-Jun-28 17:41 UTC.
Position N 09°11' W 079°52'.

Length 183 m; draft 10.5 m.

Type: Tanker. MMSI: 477185800.

Date/timePositionNaut miles runAvg speedWind from/ knotsBaromVisibWave heightAir tempDewpointWater temp
2017-Jun-27 20:32N 09°11' W 079°52'412.0
2017-Jun-27 20:14N 09°13' W 079°55'2 8.6
2017-Jun-27 19:59N 09°15' W 079°55'1 2.8
2017-Jun-27 19:30N 09°16' W 079°55'0 0.1
2017-Jun-27 16:49N 09°16' W 079°55'0 0.5
2017-Jun-27 16:30N 09°17' W 079°55'0 0.4
2017-Jun-27 16:00N 09°17' W 079°55'0 0.0
2017-Jun-27 15:30N 09°17' W 079°55'1 1.2
2017-Jun-27 15:00N 09°17' W 079°55'6 5.5
2017-Jun-27 14:00N 09°23' W 079°55'3 6.0
2017-Jun-27 13:30N 09°26' W 079°55'1 2.0
2017-Jun-27 13:00N 09°26' W 079°56'0 0.1
2017-Jun-27 12:30N 09°26' W 079°56'0 0.0
2017-Jun-27 11:57N 09°26' W 079°56'0 0.0
2017-Jun-27 11:30N 09°26' W 079°56'0 0.1
2017-Jun-27 11:00N 09°26' W 079°56'0 0.0
2017-Jun-27 10:30N 09°26' W 079°56'0 0.0
2017-Jun-27 10:00N 09°26' W 079°56'0 0.0
2017-Jun-27 09:30N 09°26' W 079°56'0 0.0
2017-Jun-27 09:00N 09°26' W 079°56'0 0.0
2017-Jun-27 08:30N 09°26' W 079°56'0 0.0
2017-Jun-27 07:51N 09°26' W 079°56'0 0.0
2017-Jun-27 07:30N 09°26' W 079°56'0 0.0
2017-Jun-27 07:00N 09°26' W 079°56'0 0.0
2017-Jun-27 06:27N 09°26' W 079°56'0 0.1
2017-Jun-27 05:57N 09°26' W 079°56'0 0.0
2017-Jun-27 05:21N 09°26' W 079°56'0 0.0
2017-Jun-27 04:57N 09°26' W 079°56'0 0.0
2017-Jun-27 04:30N 09°26' W 079°56'0 0.0
2017-Jun-27 04:00N 09°26' W 079°56'0 0.0
2017-Jun-27 03:30N 09°26' W 079°56'0 0.0
2017-Jun-27 03:00N 09°26' W 079°56'0 0.4
2017-Jun-27 02:30N 09°26' W 079°56'3 5.5
2017-Jun-27 02:00N 09°29' W 079°55'4 8.0
2017-Jun-27 01:30N 09°32' W 079°53'  
2017-Jun-20 19:58N 29°21' W 094°45'1010.1
2017-Jun-20 18:58N 29°29' W 094°52'510.8
2017-Jun-20 18:31N 29°33' W 094°55'510.5
2017-Jun-20 18:00N 29°38' W 094°58'5 9.7
2017-Jun-20 17:30N 29°42' W 095°00'4 7.4
2017-Jun-20 17:00N 29°44' W 095°03'3 5.2
2017-Jun-20 16:30N 29°44' W 095°07'  
2017-Jun-18 03:46N 29°44' W 095°10'0 0.5
2017-Jun-18 03:30N 29°45' W 095°10'2 4.3
2017-Jun-18 03:01N 29°44' W 095°07'3 5.6
2017-Jun-18 02:30N 29°46' W 095°05'4 7.8
2017-Jun-18 02:01N 29°43' W 095°01'4 7.7
2017-Jun-18 01:30N 29°40' W 094°59'611.8
2017-Jun-18 01:01N 29°35' W 094°56'612.0
2017-Jun-18 00:30N 29°30' W 094°52'612.0
2017-Jun-18 00:00N 29°24' W 094°49'  
Track history (hours):
 
Tides and Currents Weather Stations Pressure Air Temp Water Temp Dewpoint Dewpoint Depression Visibility Wind Speed Wind Dir Waves Ship Positions

Alpine Moment

Last reported at 2017-Jun-27 20:32 UTC. Time now 2017-Jun-28 17:41 UTC.
Position N 09°11' W 079°52'.

Length 183 m; draft 10.5 m.

Type: Tanker. MMSI: 477185800.

Date/timePositionNaut miles runAvg speedWind from/ knotsBaromVisibWave heightAir tempDewpointWater temp
2017-Jun-27 20:32N 09°11' W 079°52'412.0
2017-Jun-27 20:14N 09°13' W 079°55'2 8.6
2017-Jun-27 19:59N 09°15' W 079°55'1 2.8
2017-Jun-27 19:30N 09°16' W 079°55'0 0.1
2017-Jun-27 16:49N 09°16' W 079°55'0 0.5
2017-Jun-27 16:30N 09°17' W 079°55'0 0.4
2017-Jun-27 16:00N 09°17' W 079°55'0 0.0
2017-Jun-27 15:30N 09°17' W 079°55'1 1.2
2017-Jun-27 15:00N 09°17' W 079°55'6 5.5
2017-Jun-27 14:00N 09°23' W 079°55'3 6.0
2017-Jun-27 13:30N 09°26' W 079°55'1 2.0
2017-Jun-27 13:00N 09°26' W 079°56'0 0.1
2017-Jun-27 12:30N 09°26' W 079°56'0 0.0
2017-Jun-27 11:57N 09°26' W 079°56'0 0.0
2017-Jun-27 11:30N 09°26' W 079°56'0 0.1
2017-Jun-27 11:00N 09°26' W 079°56'0 0.0
2017-Jun-27 10:30N 09°26' W 079°56'0 0.0
2017-Jun-27 10:00N 09°26' W 079°56'0 0.0
2017-Jun-27 09:30N 09°26' W 079°56'0 0.0
2017-Jun-27 09:00N 09°26' W 079°56'0 0.0
2017-Jun-27 08:30N 09°26' W 079°56'0 0.0
2017-Jun-27 07:51N 09°26' W 079°56'0 0.0
2017-Jun-27 07:30N 09°26' W 079°56'0 0.0
2017-Jun-27 07:00N 09°26' W 079°56'0 0.0
2017-Jun-27 06:27N 09°26' W 079°56'0 0.1
2017-Jun-27 05:57N 09°26' W 079°56'0 0.0
2017-Jun-27 05:21N 09°26' W 079°56'0 0.0
2017-Jun-27 04:57N 09°26' W 079°56'0 0.0
2017-Jun-27 04:30N 09°26' W 079°56'0 0.0
2017-Jun-27 04:00N 09°26' W 079°56'0 0.0
2017-Jun-27 03:30N 09°26' W 079°56'0 0.0
2017-Jun-27 03:00N 09°26' W 079°56'0 0.4
2017-Jun-27 02:30N 09°26' W 079°56'3 5.5
2017-Jun-27 02:00N 09°29' W 079°55'4 8.0
2017-Jun-27 01:30N 09°32' W 079°53'  
2017-Jun-20 19:58N 29°21' W 094°45'1010.1
2017-Jun-20 18:58N 29°29' W 094°52'510.8
2017-Jun-20 18:31N 29°33' W 094°55'510.5
2017-Jun-20 18:00N 29°38' W 094°58'5 9.7
2017-Jun-20 17:30N 29°42' W 095°00'4 7.4
2017-Jun-20 17:00N 29°44' W 095°03'3 5.2
2017-Jun-20 16:30N 29°44' W 095°07'  
2017-Jun-18 03:46N 29°44' W 095°10'0 0.5
2017-Jun-18 03:30N 29°45' W 095°10'2 4.3
2017-Jun-18 03:01N 29°44' W 095°07'3 5.6
2017-Jun-18 02:30N 29°46' W 095°05'4 7.8
2017-Jun-18 02:01N 29°43' W 095°01'4 7.7
2017-Jun-18 01:30N 29°40' W 094°59'611.8
2017-Jun-18 01:01N 29°35' W 094°56'612.0
2017-Jun-18 00:30N 29°30' W 094°52'612.0
2017-Jun-18 00:00N 29°24' W 094°49'  

Dump ship's entire track history